Etusivu
METAR-TAF:

METAR-TAF

Lentoasemat :

Litchfield Municipal Airport

Litchfield, Minnesota, Yhdysvallat

Leveyspiiri: 45-05-50N, Pituuspiiri: 094-30-26W, korkeus merenpinnasta: 348 m

Tämänhetkinen sää

Tämä raportti tehtiin 24 minuuttia sitten, kello 23.35 UTC
tyyntä
Lämpötila 2°C
Kosteus 80%
Ilmanpaine 1022 hPa
Näkyvyys: 16.1 km
selkeää

METAR: KLJF 142335Z AUTO 00000KT 10SM CLR 02/M01 A3018 RMK AO2

Aika: 17:59 (23:59 UTC)


TAF: puuttuu

Säähavainnot ja -ennusteet yli 4000 lentoasemalta (METAR- ja TAF-raportit).

Käytössä olevat sääasemat on merkitty karttaan keltaisilla ja punaisilla pisteillä.

Aseta hiiri pisteen päälle nähdäksesi sääaseman nimen.

Klikkaa sitten nähdäksesi säähavainnot ja -ennusteet.

Kartan vaihtaminen: klikkaa mustalla rastilla varustettuja vihreitä pisteitä, niin voit zoomata sisään; viivalla varustettua vihreää pistettä, niin voit zoomata ulos tai vihreitä nuolia, niin pääset viereisille kartoille.


METAR-TAF: